Taft, Ohio
Current Conditions -  °F | °C
As of 5:53 PM on Friday 28 Nov 2014 (Local Time) from KLUK Reporting Station
Clear Clear  
Wind Chill: 27°   Ceiling: Unl
Heat Index: 32°   Visibility: 10mi
Dew Point: 17°   Wind: 5mph
Humidity: 54%   Direction: 160°SSE
Pressure: 30.21"   Gusts: NA
Location:  39.2094°N, 84.3952°W
Report Text: KLUK 282253Z 16004KT 10SM CLR 00/M08 A3021 RMK AO2 SLP237 T00001083
Loading
Personal Weather Stations






























Interactive Weather Map New forecast layout! Learn more

10-Day Weather Forecast

Advertisements
Track Severe Weather on mobile